sensor_id;sensor_type;location;lat;lon;timestamp;temperature;humidity
44047;DHT22;29713;-33.888;151.150;2022-12-18T00:01:38;19.50;99.90
44047;DHT22;29713;-33.888;151.150;2022-12-18T00:04:18;19.30;99.90
44047;DHT22;29713;-33.888;151.150;2022-12-18T00:06:46;19.30;99.90
44047;DHT22;29713;-33.888;151.150;2022-12-18T00:09:14;19.20;99.90
44047;DHT22;29713;-33.888;151.150;2022-12-18T00:11:41;19.40;99.90
44047;DHT22;29713;-33.888;151.150;2022-12-18T00:14:10;19.60;99.90
44047;DHT22;29713;-33.888;151.150;2022-12-18T00:16:38;19.60;99.90
44047;DHT22;29713;-33.888;151.150;2022-12-18T00:19:06;19.80;99.90
44047;DHT22;29713;-33.888;151.150;2022-12-18T00:21:35;19.90;99.90
44047;DHT22;29713;-33.888;151.150;2022-12-18T00:24:03;19.90;99.90
44047;DHT22;29713;-33.888;151.150;2022-12-18T00:26:32;19.80;99.90
44047;DHT22;29713;-33.888;151.150;2022-12-18T00:29:01;19.80;99.90
44047;DHT22;29713;-33.888;151.150;2022-12-18T00:31:29;20.20;99.90
44047;DHT22;29713;-33.888;151.150;2022-12-18T00:33:56;20.50;99.90
44047;DHT22;29713;-33.888;151.150;2022-12-18T00:36:30;20.80;99.90
44047;DHT22;29713;-33.888;151.150;2022-12-18T00:39:02;20.90;99.90
44047;DHT22;29713;-33.888;151.150;2022-12-18T00:41:30;21.00;99.90
44047;DHT22;29713;-33.888;151.150;2022-12-18T00:44:17;20.80;99.90
44047;DHT22;29713;-33.888;151.150;2022-12-18T00:46:46;20.80;99.90
44047;DHT22;29713;-33.888;151.150;2022-12-18T00:49:15;20.80;99.90
44047;DHT22;29713;-33.888;151.150;2022-12-18T00:51:42;20.80;99.90
44047;DHT22;29713;-33.888;151.150;2022-12-18T00:54:10;20.90;99.90
44047;DHT22;29713;-33.888;151.150;2022-12-18T00:56:38;21.20;99.90
44047;DHT22;29713;-33.888;151.150;2022-12-18T00:59:06;21.60;99.90
44047;DHT22;29713;-33.888;151.150;2022-12-18T01:01:33;22.00;99.90
44047;DHT22;29713;-33.888;151.150;2022-12-18T01:04:02;22.20;99.90
44047;DHT22;29713;-33.888;151.150;2022-12-18T01:06:30;22.00;99.90
44047;DHT22;29713;-33.888;151.150;2022-12-18T01:08:57;21.50;99.90
44047;DHT22;29713;-33.888;151.150;2022-12-18T01:11:25;20.90;99.90
44047;DHT22;29713;-33.888;151.150;2022-12-18T01:13:53;20.60;99.90
44047;DHT22;29713;-33.888;151.150;2022-12-18T01:16:22;20.40;99.90
44047;DHT22;29713;-33.888;151.150;2022-12-18T01:18:52;20.20;99.90
44047;DHT22;29713;-33.888;151.150;2022-12-18T01:21:21;20.00;99.90
44047;DHT22;29713;-33.888;151.150;2022-12-18T01:23:55;19.80;99.90
44047;DHT22;29713;-33.888;151.150;2022-12-18T01:26:24;19.80;99.90
44047;DHT22;29713;-33.888;151.150;2022-12-18T01:28:51;19.60;99.90
44047;DHT22;29713;-33.888;151.150;2022-12-18T01:31:25;19.60;99.90
44047;DHT22;29713;-33.888;151.150;2022-12-18T01:33:54;19.50;99.90
44047;DHT22;29713;-33.888;151.150;2022-12-18T01:36:31;19.40;99.90
44047;DHT22;29713;-33.888;151.150;2022-12-18T01:39:01;19.50;99.90
44047;DHT22;29713;-33.888;151.150;2022-12-18T01:41:30;19.70;99.90
44047;DHT22;29713;-33.888;151.150;2022-12-18T01:49:53;20.40;99.90
44047;DHT22;29713;-33.888;151.150;2022-12-18T01:52:22;20.80;99.90
44047;DHT22;29713;-33.888;151.150;2022-12-18T01:54:51;20.80;99.90
44047;DHT22;29713;-33.888;151.150;2022-12-18T01:57:19;20.70;99.90
44047;DHT22;29713;-33.888;151.150;2022-12-18T01:59:49;20.40;99.90
44047;DHT22;29713;-33.888;151.150;2022-12-18T02:02:18;20.00;99.90
44047;DHT22;29713;-33.888;151.150;2022-12-18T02:04:46;19.50;99.90
44047;DHT22;29713;-33.888;151.150;2022-12-18T02:15:54;19.60;99.90
44047;DHT22;29713;-33.888;151.150;2022-12-18T02:18:27;19.80;99.90
44047;DHT22;29713;-33.888;151.150;2022-12-18T02:24:13;20.00;99.90
44047;DHT22;29713;-33.888;151.150;2022-12-18T02:26:53;20.00;99.90
44047;DHT22;29713;-33.888;151.150;2022-12-18T02:29:29;19.90;99.90
44047;DHT22;29713;-33.888;151.150;2022-12-18T02:32:03;19.60;99.90
44047;DHT22;29713;-33.888;151.150;2022-12-18T02:34:33;19.60;99.90
44047;DHT22;29713;-33.888;151.150;2022-12-18T02:37:06;19.80;99.90
44047;DHT22;29713;-33.888;151.150;2022-12-18T02:39:37;20.40;99.90
44047;DHT22;29713;-33.888;151.150;2022-12-18T02:42:06;21.20;99.90
44047;DHT22;29713;-33.888;151.150;2022-12-18T02:44:46;22.10;99.90
44047;DHT22;29713;-33.888;151.150;2022-12-18T02:47:16;22.80;99.90
44047;DHT22;29713;-33.888;151.150;2022-12-18T02:50:26;23.60;99.90
44047;DHT22;29713;-33.888;151.150;2022-12-18T02:56:07;24.00;99.90
44047;DHT22;29713;-33.888;151.150;2022-12-18T02:59:33;24.00;99.90
44047;DHT22;29713;-33.888;151.150;2022-12-18T03:01:57;24.00;99.90
44047;DHT22;29713;-33.888;151.150;2022-12-18T03:04:30;24.40;99.90
44047;DHT22;29713;-33.888;151.150;2022-12-18T03:07:02;24.50;99.90
44047;DHT22;29713;-33.888;151.150;2022-12-18T03:09:37;24.90;99.90
44047;DHT22;29713;-33.888;151.150;2022-12-18T03:15:36;26.00;99.90
44047;DHT22;29713;-33.888;151.150;2022-12-18T03:17:52;26.30;99.90
44047;DHT22;29713;-33.888;151.150;2022-12-18T03:20:22;26.30;99.90
44047;DHT22;29713;-33.888;151.150;2022-12-18T03:22:56;26.10;99.90
44047;DHT22;29713;-33.888;151.150;2022-12-18T03:25:27;25.60;99.90
44047;DHT22;29713;-33.888;151.150;2022-12-18T03:27:57;25.20;99.90
44047;DHT22;29713;-33.888;151.150;2022-12-18T03:30:26;24.90;99.90
44047;DHT22;29713;-33.888;151.150;2022-12-18T03:33:15;24.60;99.90
44047;DHT22;29713;-33.888;151.150;2022-12-18T03:35:46;24.60;99.90
44047;DHT22;29713;-33.888;151.150;2022-12-18T03:38:13;24.30;99.90
44047;DHT22;29713;-33.888;151.150;2022-12-18T03:46:40;23.40;99.90
44047;DHT22;29713;-33.888;151.150;2022-12-18T03:54:27;23.00;99.90
44047;DHT22;29713;-33.888;151.150;2022-12-18T03:57:01;22.90;99.90
44047;DHT22;29713;-33.888;151.150;2022-12-18T03:59:30;22.70;99.90
44047;DHT22;29713;-33.888;151.150;2022-12-18T04:02:00;22.60;99.90
44047;DHT22;29713;-33.888;151.150;2022-12-18T04:04:29;22.50;99.90
44047;DHT22;29713;-33.888;151.150;2022-12-18T04:06:58;22.40;99.90
44047;DHT22;29713;-33.888;151.150;2022-12-18T04:09:26;22.50;99.90
44047;DHT22;29713;-33.888;151.150;2022-12-18T04:11:54;22.90;99.90
44047;DHT22;29713;-33.888;151.150;2022-12-18T04:14:21;23.30;99.90
44047;DHT22;29713;-33.888;151.150;2022-12-18T04:16:48;23.50;99.90
44047;DHT22;29713;-33.888;151.150;2022-12-18T04:19:16;23.80;99.90
44047;DHT22;29713;-33.888;151.150;2022-12-18T04:21:43;23.90;99.90
44047;DHT22;29713;-33.888;151.150;2022-12-18T04:24:10;23.70;99.90
44047;DHT22;29713;-33.888;151.150;2022-12-18T04:26:38;23.80;99.90
44047;DHT22;29713;-33.888;151.150;2022-12-18T04:29:05;23.90;99.90
44047;DHT22;29713;-33.888;151.150;2022-12-18T04:31:32;23.80;99.90
44047;DHT22;29713;-33.888;151.150;2022-12-18T04:33:59;23.70;99.90
44047;DHT22;29713;-33.888;151.150;2022-12-18T04:36:27;23.70;99.90
44047;DHT22;29713;-33.888;151.150;2022-12-18T04:38:54;23.60;99.90
44047;DHT22;29713;-33.888;151.150;2022-12-18T04:41:22;23.50;99.90
44047;DHT22;29713;-33.888;151.150;2022-12-18T04:43:49;23.20;99.90
44047;DHT22;29713;-33.888;151.150;2022-12-18T04:46:16;23.10;99.90
44047;DHT22;29713;-33.888;151.150;2022-12-18T04:48:46;23.20;99.90
44047;DHT22;29713;-33.888;151.150;2022-12-18T04:51:13;23.70;99.90
44047;DHT22;29713;-33.888;151.150;2022-12-18T04:53:41;23.90;99.90
44047;DHT22;29713;-33.888;151.150;2022-12-18T04:56:11;24.20;99.90
44047;DHT22;29713;-33.888;151.150;2022-12-18T04:58:40;24.70;99.90
44047;DHT22;29713;-33.888;151.150;2022-12-18T05:01:09;24.90;99.90
44047;DHT22;29713;-33.888;151.150;2022-12-18T05:03:37;25.00;99.90
44047;DHT22;29713;-33.888;151.150;2022-12-18T05:06:05;25.10;99.90
44047;DHT22;29713;-33.888;151.150;2022-12-18T05:08:33;25.10;99.90
44047;DHT22;29713;-33.888;151.150;2022-12-18T05:11:05;25.40;99.90
44047;DHT22;29713;-33.888;151.150;2022-12-18T05:13:34;25.40;99.90
44047;DHT22;29713;-33.888;151.150;2022-12-18T05:16:02;25.40;99.90
44047;DHT22;29713;-33.888;151.150;2022-12-18T05:18:29;25.80;99.90
44047;DHT22;29713;-33.888;151.150;2022-12-18T05:20:57;25.90;99.90
44047;DHT22;29713;-33.888;151.150;2022-12-18T05:23:25;25.70;99.90
44047;DHT22;29713;-33.888;151.150;2022-12-18T05:26:01;25.80;99.90
44047;DHT22;29713;-33.888;151.150;2022-12-18T05:28:30;26.10;99.90
44047;DHT22;29713;-33.888;151.150;2022-12-18T05:31:01;26.10;99.90
44047;DHT22;29713;-33.888;151.150;2022-12-18T05:33:32;26.30;99.90
44047;DHT22;29713;-33.888;151.150;2022-12-18T05:36:05;26.40;99.90
44047;DHT22;29713;-33.888;151.150;2022-12-18T05:38:34;26.50;99.90
44047;DHT22;29713;-33.888;151.150;2022-12-18T05:41:03;26.70;99.90
44047;DHT22;29713;-33.888;151.150;2022-12-18T05:43:30;26.70;99.90
44047;DHT22;29713;-33.888;151.150;2022-12-18T05:46:02;26.60;99.90
44047;DHT22;29713;-33.888;151.150;2022-12-18T05:48:29;26.50;99.90
44047;DHT22;29713;-33.888;151.150;2022-12-18T05:51:07;26.40;99.90
44047;DHT22;29713;-33.888;151.150;2022-12-18T05:53:35;26.40;99.90
44047;DHT22;29713;-33.888;151.150;2022-12-18T05:56:05;26.10;99.90
44047;DHT22;29713;-33.888;151.150;2022-12-18T05:58:33;26.00;99.90
44047;DHT22;29713;-33.888;151.150;2022-12-18T06:01:16;25.60;99.90
44047;DHT22;29713;-33.888;151.150;2022-12-18T06:03:44;25.50;99.90
44047;DHT22;29713;-33.888;151.150;2022-12-18T06:06:23;25.40;99.90
44047;DHT22;29713;-33.888;151.150;2022-12-18T06:08:51;25.40;99.90
44047;DHT22;29713;-33.888;151.150;2022-12-18T06:11:21;25.40;99.90
44047;DHT22;29713;-33.888;151.150;2022-12-18T06:13:53;25.20;99.90
44047;DHT22;29713;-33.888;151.150;2022-12-18T06:16:21;25.20;99.90
44047;DHT22;29713;-33.888;151.150;2022-12-18T06:18:48;24.90;99.90
44047;DHT22;29713;-33.888;151.150;2022-12-18T06:21:16;24.90;99.90
44047;DHT22;29713;-33.888;151.150;2022-12-18T06:23:43;24.60;99.90
44047;DHT22;29713;-33.888;151.150;2022-12-18T06:26:12;24.60;99.90
44047;DHT22;29713;-33.888;151.150;2022-12-18T06:28:40;24.40;99.90
44047;DHT22;29713;-33.888;151.150;2022-12-18T06:31:08;24.30;99.90
44047;DHT22;29713;-33.888;151.150;2022-12-18T06:33:36;24.00;99.90
44047;DHT22;29713;-33.888;151.150;2022-12-18T06:36:11;23.90;99.90
44047;DHT22;29713;-33.888;151.150;2022-12-18T06:38:41;23.60;99.90
44047;DHT22;29713;-33.888;151.150;2022-12-18T06:41:14;23.40;99.90
44047;DHT22;29713;-33.888;151.150;2022-12-18T06:43:42;23.20;99.90
44047;DHT22;29713;-33.888;151.150;2022-12-18T06:46:11;22.90;99.90
44047;DHT22;29713;-33.888;151.150;2022-12-18T06:48:38;22.70;99.90
44047;DHT22;29713;-33.888;151.150;2022-12-18T06:51:06;22.60;99.90
44047;DHT22;29713;-33.888;151.150;2022-12-18T06:53:34;22.50;99.90
44047;DHT22;29713;-33.888;151.150;2022-12-18T06:56:06;22.40;99.90
44047;DHT22;29713;-33.888;151.150;2022-12-18T06:58:33;22.20;99.90
44047;DHT22;29713;-33.888;151.150;2022-12-18T07:01:02;22.10;99.90
44047;DHT22;29713;-33.888;151.150;2022-12-18T07:03:29;22.00;99.90
44047;DHT22;29713;-33.888;151.150;2022-12-18T07:05:57;21.80;99.90
44047;DHT22;29713;-33.888;151.150;2022-12-18T07:08:25;21.60;99.90
44047;DHT22;29713;-33.888;151.150;2022-12-18T07:10:52;21.50;99.90
44047;DHT22;29713;-33.888;151.150;2022-12-18T07:13:20;21.40;99.90
44047;DHT22;29713;-33.888;151.150;2022-12-18T07:15:48;21.30;99.90
44047;DHT22;29713;-33.888;151.150;2022-12-18T07:18:15;21.10;99.90
44047;DHT22;29713;-33.888;151.150;2022-12-18T07:20:42;21.10;99.90
44047;DHT22;29713;-33.888;151.150;2022-12-18T07:23:10;20.90;99.90
44047;DHT22;29713;-33.888;151.150;2022-12-18T07:25:38;20.80;99.90
44047;DHT22;29713;-33.888;151.150;2022-12-18T07:28:06;20.70;99.90
44047;DHT22;29713;-33.888;151.150;2022-12-18T07:30:33;20.60;99.90
44047;DHT22;29713;-33.888;151.150;2022-12-18T07:33:00;20.60;99.90
44047;DHT22;29713;-33.888;151.150;2022-12-18T07:35:28;20.70;99.90
44047;DHT22;29713;-33.888;151.150;2022-12-18T07:37:55;20.70;99.90
44047;DHT22;29713;-33.888;151.150;2022-12-18T07:40:22;20.70;99.90
44047;DHT22;29713;-33.888;151.150;2022-12-18T07:42:49;20.70;99.90
44047;DHT22;29713;-33.888;151.150;2022-12-18T07:45:17;20.70;99.90
44047;DHT22;29713;-33.888;151.150;2022-12-18T07:47:44;20.60;99.90
44047;DHT22;29713;-33.888;151.150;2022-12-18T07:50:11;20.50;99.90
44047;DHT22;29713;-33.888;151.150;2022-12-18T07:52:39;20.30;99.90
44047;DHT22;29713;-33.888;151.150;2022-12-18T07:55:07;20.20;99.90
44047;DHT22;29713;-33.888;151.150;2022-12-18T07:57:37;20.20;99.90
44047;DHT22;29713;-33.888;151.150;2022-12-18T08:00:05;20.10;99.90
44047;DHT22;29713;-33.888;151.150;2022-12-18T08:02:36;20.10;99.90
44047;DHT22;29713;-33.888;151.150;2022-12-18T08:05:03;20.00;99.90
44047;DHT22;29713;-33.888;151.150;2022-12-18T08:07:31;20.00;99.90
44047;DHT22;29713;-33.888;151.150;2022-12-18T08:09:58;20.00;99.90
44047;DHT22;29713;-33.888;151.150;2022-12-18T08:12:25;20.00;99.90
44047;DHT22;29713;-33.888;151.150;2022-12-18T08:14:53;20.00;99.90
44047;DHT22;29713;-33.888;151.150;2022-12-18T08:17:20;19.90;99.90
44047;DHT22;29713;-33.888;151.150;2022-12-18T08:19:47;19.80;99.90
44047;DHT22;29713;-33.888;151.150;2022-12-18T08:22:15;19.70;99.90
44047;DHT22;29713;-33.888;151.150;2022-12-18T08:24:42;19.80;99.90
44047;DHT22;29713;-33.888;151.150;2022-12-18T08:27:09;19.80;99.90
44047;DHT22;29713;-33.888;151.150;2022-12-18T08:29:37;19.80;99.90
44047;DHT22;29713;-33.888;151.150;2022-12-18T08:32:04;19.70;99.90
44047;DHT22;29713;-33.888;151.150;2022-12-18T08:34:32;19.60;99.90
44047;DHT22;29713;-33.888;151.150;2022-12-18T08:36:59;19.50;99.90
44047;DHT22;29713;-33.888;151.150;2022-12-18T08:39:27;19.50;99.90
44047;DHT22;29713;-33.888;151.150;2022-12-18T08:41:54;19.50;99.90
44047;DHT22;29713;-33.888;151.150;2022-12-18T08:44:39;19.40;99.90
44047;DHT22;29713;-33.888;151.150;2022-12-18T08:47:08;19.40;99.90
44047;DHT22;29713;-33.888;151.150;2022-12-18T08:49:35;19.30;99.90
44047;DHT22;29713;-33.888;151.150;2022-12-18T08:52:03;19.30;99.90
44047;DHT22;29713;-33.888;151.150;2022-12-18T08:54:30;19.00;99.90
44047;DHT22;29713;-33.888;151.150;2022-12-18T08:56:58;18.90;99.90
44047;DHT22;29713;-33.888;151.150;2022-12-18T08:59:28;18.80;99.90
44047;DHT22;29713;-33.888;151.150;2022-12-18T09:01:55;18.70;99.90
44047;DHT22;29713;-33.888;151.150;2022-12-18T09:04:23;18.50;99.90
44047;DHT22;29713;-33.888;151.150;2022-12-18T09:06:50;18.40;99.90
44047;DHT22;29713;-33.888;151.150;2022-12-18T09:09:17;18.20;99.90
44047;DHT22;29713;-33.888;151.150;2022-12-18T09:11:44;18.10;99.90
44047;DHT22;29713;-33.888;151.150;2022-12-18T09:14:12;18.00;99.90
44047;DHT22;29713;-33.888;151.150;2022-12-18T09:16:40;18.00;99.90
44047;DHT22;29713;-33.888;151.150;2022-12-18T09:19:08;18.00;99.90
44047;DHT22;29713;-33.888;151.150;2022-12-18T09:21:39;18.00;99.90
44047;DHT22;29713;-33.888;151.150;2022-12-18T09:24:08;18.00;99.90
44047;DHT22;29713;-33.888;151.150;2022-12-18T09:26:36;18.00;99.90
44047;DHT22;29713;-33.888;151.150;2022-12-18T09:29:04;18.00;99.90
44047;DHT22;29713;-33.888;151.150;2022-12-18T09:31:33;17.90;99.90
44047;DHT22;29713;-33.888;151.150;2022-12-18T09:34:01;17.90;99.90
44047;DHT22;29713;-33.888;151.150;2022-12-18T09:36:28;17.90;99.90
44047;DHT22;29713;-33.888;151.150;2022-12-18T09:38:55;17.90;99.90
44047;DHT22;29713;-33.888;151.150;2022-12-18T09:49:45;18.00;99.90
44047;DHT22;29713;-33.888;151.150;2022-12-18T09:52:35;18.00;99.90
44047;DHT22;29713;-33.888;151.150;2022-12-18T09:55:11;18.10;99.90
44047;DHT22;29713;-33.888;151.150;2022-12-18T09:57:45;18.10;99.90
44047;DHT22;29713;-33.888;151.150;2022-12-18T10:00:20;18.10;99.90
44047;DHT22;29713;-33.888;151.150;2022-12-18T10:02:48;18.10;99.90
44047;DHT22;29713;-33.888;151.150;2022-12-18T10:06:10;18.20;99.90
44047;DHT22;29713;-33.888;151.150;2022-12-18T10:08:19;18.20;99.90
44047;DHT22;29713;-33.888;151.150;2022-12-18T10:10:53;18.20;99.90
44047;DHT22;29713;-33.888;151.150;2022-12-18T10:22:19;18.00;99.90
44047;DHT22;29713;-33.888;151.150;2022-12-18T10:25:20;18.10;99.90
44047;DHT22;29713;-33.888;151.150;2022-12-18T10:27:51;18.10;99.90
44047;DHT22;29713;-33.888;151.150;2022-12-18T10:30:22;18.10;99.90
44047;DHT22;29713;-33.888;151.150;2022-12-18T10:32:49;18.10;99.90
44047;DHT22;29713;-33.888;151.150;2022-12-18T10:35:23;18.20;99.90
44047;DHT22;29713;-33.888;151.150;2022-12-18T10:40:52;18.20;99.90
44047;DHT22;29713;-33.888;151.150;2022-12-18T10:48:35;18.20;99.90
44047;DHT22;29713;-33.888;151.150;2022-12-18T10:51:04;18.10;99.90
44047;DHT22;29713;-33.888;151.150;2022-12-18T10:53:34;18.00;99.90
44047;DHT22;29713;-33.888;151.150;2022-12-18T10:56:04;17.90;99.90
44047;DHT22;29713;-33.888;151.150;2022-12-18T10:58:34;17.80;99.90
44047;DHT22;29713;-33.888;151.150;2022-12-18T11:03:58;17.50;99.90
44047;DHT22;29713;-33.888;151.150;2022-12-18T11:06:29;17.50;99.90
44047;DHT22;29713;-33.888;151.150;2022-12-18T11:09:02;17.50;99.90
44047;DHT22;29713;-33.888;151.150;2022-12-18T11:11:32;17.50;99.90
44047;DHT22;29713;-33.888;151.150;2022-12-18T11:14:05;17.50;99.90
44047;DHT22;29713;-33.888;151.150;2022-12-18T11:16:45;17.40;99.90
44047;DHT22;29713;-33.888;151.150;2022-12-18T11:21:56;17.40;99.90
44047;DHT22;29713;-33.888;151.150;2022-12-18T11:24:36;17.40;99.90
44047;DHT22;29713;-33.888;151.150;2022-12-18T11:27:05;17.40;99.90
44047;DHT22;29713;-33.888;151.150;2022-12-18T11:29:42;17.40;99.90
44047;DHT22;29713;-33.888;151.150;2022-12-18T11:32:31;17.30;99.90
44047;DHT22;29713;-33.888;151.150;2022-12-18T11:37:36;17.30;99.90
44047;DHT22;29713;-33.888;151.150;2022-12-18T11:40:14;17.20;99.90
44047;DHT22;29713;-33.888;151.150;2022-12-18T11:43:27;17.20;99.90
44047;DHT22;29713;-33.888;151.150;2022-12-18T11:45:43;17.20;99.90
44047;DHT22;29713;-33.888;151.150;2022-12-18T11:50:49;17.10;99.90
44047;DHT22;29713;-33.888;151.150;2022-12-18T11:53:18;17.10;99.90
44047;DHT22;29713;-33.888;151.150;2022-12-18T12:12:41;17.10;99.90
44047;DHT22;29713;-33.888;151.150;2022-12-18T12:26:48;17.10;99.90
44047;DHT22;29713;-33.888;151.150;2022-12-18T12:29:04;17.00;99.90
44047;DHT22;29713;-33.888;151.150;2022-12-18T12:31:49;17.00;99.90
44047;DHT22;29713;-33.888;151.150;2022-12-18T12:37:24;16.90;99.90
44047;DHT22;29713;-33.888;151.150;2022-12-18T12:39:53;16.80;99.90
44047;DHT22;29713;-33.888;151.150;2022-12-18T12:45:36;16.80;99.90
44047;DHT22;29713;-33.888;151.150;2022-12-18T12:48:07;16.80;99.90
44047;DHT22;29713;-33.888;151.150;2022-12-18T12:50:38;16.80;99.90
44047;DHT22;29713;-33.888;151.150;2022-12-18T12:53:09;16.80;99.90
44047;DHT22;29713;-33.888;151.150;2022-12-18T12:55:40;16.80;99.90
44047;DHT22;29713;-33.888;151.150;2022-12-18T12:58:15;16.80;99.90
44047;DHT22;29713;-33.888;151.150;2022-12-18T13:03:52;16.90;99.90
44047;DHT22;29713;-33.888;151.150;2022-12-18T13:07:16;16.90;99.90
44047;DHT22;29713;-33.888;151.150;2022-12-18T13:09:23;16.90;99.90
44047;DHT22;29713;-33.888;151.150;2022-12-18T13:11:51;17.00;99.90
44047;DHT22;29713;-33.888;151.150;2022-12-18T13:14:39;16.90;99.90
44047;DHT22;29713;-33.888;151.150;2022-12-18T13:22:40;16.90;99.90
44047;DHT22;29713;-33.888;151.150;2022-12-18T13:25:47;16.90;99.90
44047;DHT22;29713;-33.888;151.150;2022-12-18T13:28:16;16.90;99.90
44047;DHT22;29713;-33.888;151.150;2022-12-18T13:30:52;16.90;99.90
44047;DHT22;29713;-33.888;151.150;2022-12-18T13:38:41;17.10;99.90
44047;DHT22;29713;-33.888;151.150;2022-12-18T13:44:10;17.20;99.90
44047;DHT22;29713;-33.888;151.150;2022-12-18T13:46:45;17.20;99.90
44047;DHT22;29713;-33.888;151.150;2022-12-18T13:51:46;17.20;99.90
44047;DHT22;29713;-33.888;151.150;2022-12-18T13:57:02;17.20;99.90
44047;DHT22;29713;-33.888;151.150;2022-12-18T13:59:37;17.20;99.90
44047;DHT22;29713;-33.888;151.150;2022-12-18T14:02:16;17.20;99.90
44047;DHT22;29713;-33.888;151.150;2022-12-18T14:04:48;17.10;99.90
44047;DHT22;29713;-33.888;151.150;2022-12-18T14:07:28;17.00;99.90
44047;DHT22;29713;-33.888;151.150;2022-12-18T14:09:58;17.00;99.90
44047;DHT22;29713;-33.888;151.150;2022-12-18T14:12:34;16.90;99.90
44047;DHT22;29713;-33.888;151.150;2022-12-18T14:17:59;16.90;99.90
44047;DHT22;29713;-33.888;151.150;2022-12-18T14:20:29;16.80;99.90
44047;DHT22;29713;-33.888;151.150;2022-12-18T14:22:58;16.80;99.90
44047;DHT22;29713;-33.888;151.150;2022-12-18T14:25:30;16.80;99.90
44047;DHT22;29713;-33.888;151.150;2022-12-18T14:28:24;16.80;99.90
44047;DHT22;29713;-33.888;151.150;2022-12-18T14:30:53;16.70;99.90
44047;DHT22;29713;-33.888;151.150;2022-12-18T14:33:27;16.70;99.90
44047;DHT22;29713;-33.888;151.150;2022-12-18T14:36:02;16.60;99.90
44047;DHT22;29713;-33.888;151.150;2022-12-18T14:43:36;16.60;99.90
44047;DHT22;29713;-33.888;151.150;2022-12-18T14:46:05;16.70;99.90
44047;DHT22;29713;-33.888;151.150;2022-12-18T14:48:38;16.70;99.90
44047;DHT22;29713;-33.888;151.150;2022-12-18T14:54:01;16.80;99.90
44047;DHT22;29713;-33.888;151.150;2022-12-18T14:56:34;16.80;99.90
44047;DHT22;29713;-33.888;151.150;2022-12-18T15:01:46;16.80;99.90
44047;DHT22;29713;-33.888;151.150;2022-12-18T15:04:37;16.90;99.90
44047;DHT22;29713;-33.888;151.150;2022-12-18T15:07:19;16.90;99.90
44047;DHT22;29713;-33.888;151.150;2022-12-18T15:10:15;16.90;99.90
44047;DHT22;29713;-33.888;151.150;2022-12-18T15:12:47;16.90;99.90
44047;DHT22;29713;-33.888;151.150;2022-12-18T15:20:46;16.90;99.90
44047;DHT22;29713;-33.888;151.150;2022-12-18T15:26:10;17.00;99.90
44047;DHT22;29713;-33.888;151.150;2022-12-18T15:28:55;17.10;99.90
44047;DHT22;29713;-33.888;151.150;2022-12-18T15:31:28;17.10;99.90
44047;DHT22;29713;-33.888;151.150;2022-12-18T15:36:28;17.20;99.90
44047;DHT22;29713;-33.888;151.150;2022-12-18T15:39:04;17.20;99.90
44047;DHT22;29713;-33.888;151.150;2022-12-18T15:41:33;17.20;99.90
44047;DHT22;29713;-33.888;151.150;2022-12-18T15:44:00;17.20;99.90
44047;DHT22;29713;-33.888;151.150;2022-12-18T15:46:28;17.10;99.90
44047;DHT22;29713;-33.888;151.150;2022-12-18T15:48:56;17.10;99.90
44047;DHT22;29713;-33.888;151.150;2022-12-18T15:51:31;17.10;99.90
44047;DHT22;29713;-33.888;151.150;2022-12-18T15:54:00;17.10;99.90
44047;DHT22;29713;-33.888;151.150;2022-12-18T15:56:31;17.10;99.90
44047;DHT22;29713;-33.888;151.150;2022-12-18T15:59:20;17.10;99.90
44047;DHT22;29713;-33.888;151.150;2022-12-18T16:01:49;17.10;99.90
44047;DHT22;29713;-33.888;151.150;2022-12-18T16:04:19;17.20;99.90
44047;DHT22;29713;-33.888;151.150;2022-12-18T16:06:47;17.10;99.90
44047;DHT22;29713;-33.888;151.150;2022-12-18T16:09:15;17.20;99.90
44047;DHT22;29713;-33.888;151.150;2022-12-18T16:11:43;17.10;99.90
44047;DHT22;29713;-33.888;151.150;2022-12-18T16:14:22;17.10;99.90
44047;DHT22;29713;-33.888;151.150;2022-12-18T16:16:52;17.10;99.90
44047;DHT22;29713;-33.888;151.150;2022-12-18T16:19:19;17.20;99.90
44047;DHT22;29713;-33.888;151.150;2022-12-18T16:21:48;17.10;99.90
44047;DHT22;29713;-33.888;151.150;2022-12-18T16:24:18;17.10;99.90
44047;DHT22;29713;-33.888;151.150;2022-12-18T16:26:45;17.10;99.90
44047;DHT22;29713;-33.888;151.150;2022-12-18T16:29:13;17.10;99.90
44047;DHT22;29713;-33.888;151.150;2022-12-18T16:31:40;17.10;99.90
44047;DHT22;29713;-33.888;151.150;2022-12-18T16:36:57;17.10;99.90
44047;DHT22;29713;-33.888;151.150;2022-12-18T16:39:26;17.00;99.90
44047;DHT22;29713;-33.888;151.150;2022-12-18T16:41:53;17.00;99.90
44047;DHT22;29713;-33.888;151.150;2022-12-18T16:44:20;17.10;99.90
44047;DHT22;29713;-33.888;151.150;2022-12-18T16:46:48;17.10;99.90
44047;DHT22;29713;-33.888;151.150;2022-12-18T16:49:17;17.10;99.90
44047;DHT22;29713;-33.888;151.150;2022-12-18T16:51:47;17.10;99.90
44047;DHT22;29713;-33.888;151.150;2022-12-18T16:54:14;17.10;99.90
44047;DHT22;29713;-33.888;151.150;2022-12-18T16:56:41;17.10;99.90
44047;DHT22;29713;-33.888;151.150;2022-12-18T16:59:11;17.10;99.90
44047;DHT22;29713;-33.888;151.150;2022-12-18T17:01:38;17.10;99.90
44047;DHT22;29713;-33.888;151.150;2022-12-18T17:04:07;17.10;99.90
44047;DHT22;29713;-33.888;151.150;2022-12-18T17:06:39;17.00;99.90
44047;DHT22;29713;-33.888;151.150;2022-12-18T17:09:10;16.90;99.90
44047;DHT22;29713;-33.888;151.150;2022-12-18T17:11:37;17.00;99.90
44047;DHT22;29713;-33.888;151.150;2022-12-18T17:14:13;16.90;99.90
44047;DHT22;29713;-33.888;151.150;2022-12-18T17:16:41;17.00;99.90
44047;DHT22;29713;-33.888;151.150;2022-12-18T17:19:11;16.90;99.90
44047;DHT22;29713;-33.888;151.150;2022-12-18T17:21:38;16.90;99.90
44047;DHT22;29713;-33.888;151.150;2022-12-18T17:24:06;16.90;99.90
44047;DHT22;29713;-33.888;151.150;2022-12-18T17:26:33;16.80;99.90
44047;DHT22;29713;-33.888;151.150;2022-12-18T17:29:01;16.80;99.90
44047;DHT22;29713;-33.888;151.150;2022-12-18T17:31:29;16.80;99.90
44047;DHT22;29713;-33.888;151.150;2022-12-18T17:33:57;16.80;99.90
44047;DHT22;29713;-33.888;151.150;2022-12-18T17:36:25;16.80;99.90
44047;DHT22;29713;-33.888;151.150;2022-12-18T17:39:00;16.80;99.90
44047;DHT22;29713;-33.888;151.150;2022-12-18T17:41:28;16.80;99.90
44047;DHT22;29713;-33.888;151.150;2022-12-18T17:44:02;16.80;99.90
44047;DHT22;29713;-33.888;151.150;2022-12-18T17:46:32;16.90;99.90